createdAt,value
2023-07-08T00:00:51.991Z,10.80
2023-07-08T00:03:45.279Z,12.00
2023-07-08T00:06:23.232Z,9.50
2023-07-08T00:08:56.901Z,15.60
2023-07-08T00:11:31.382Z,11.70
2023-07-08T00:14:04.606Z,13.40
2023-07-08T00:16:38.195Z,14.00
2023-07-08T00:19:18.759Z,10.50
2023-07-08T00:24:23.343Z,14.00
2023-07-08T00:26:56.468Z,13.50
2023-07-08T00:29:29.792Z,9.90
2023-07-08T00:32:03.085Z,11.90
2023-07-08T00:34:36.524Z,9.60
2023-07-08T00:37:11.555Z,11.60
2023-07-08T00:39:44.738Z,12.10
2023-07-08T00:42:24.189Z,11.60
2023-07-08T00:44:57.897Z,11.40
2023-07-08T00:47:31.044Z,12.60
2023-07-08T00:50:12.672Z,16.00
2023-07-08T00:52:48.939Z,13.60
2023-07-08T00:55:22.162Z,12.70
2023-07-08T00:57:55.453Z,14.80
2023-07-08T01:00:29.281Z,9.40
2023-07-08T01:03:02.507Z,10.90
2023-07-08T01:05:40.027Z,19.30
2023-07-08T01:08:13.205Z,10.80
2023-07-08T01:10:53.816Z,15.00
2023-07-08T01:13:27.277Z,12.80
2023-07-08T01:16:02.436Z,9.50
2023-07-08T01:18:37.213Z,12.00
2023-07-08T01:21:35.699Z,13.70
2023-07-08T01:24:12.653Z,11.10
2023-07-08T01:26:48.324Z,11.70
2023-07-08T01:29:22.025Z,10.50
2023-07-08T01:31:57.189Z,13.60
2023-07-08T01:34:30.428Z,13.90
2023-07-08T01:37:06.017Z,10.30
2023-07-08T01:39:39.107Z,12.70
2023-07-08T01:42:12.341Z,14.20
2023-07-08T01:44:45.404Z,10.70
2023-07-08T01:47:22.817Z,10.40
2023-07-08T01:49:56.018Z,17.90
2023-07-08T01:52:29.256Z,10.00
2023-07-08T01:55:02.500Z,12.20
2023-07-08T01:57:35.686Z,8.90
2023-07-08T02:00:11.277Z,11.40
2023-07-08T02:02:47.560Z,10.50
2023-07-08T02:05:21.231Z,12.60
2023-07-08T02:07:54.363Z,14.90
2023-07-08T02:10:27.873Z,10.30
2023-07-08T02:13:01.087Z,11.60
2023-07-08T02:15:34.658Z,8.50
2023-07-08T02:18:07.977Z,9.80
2023-07-08T02:20:41.130Z,12.40
2023-07-08T02:23:14.496Z,10.10
2023-07-08T02:25:54.535Z,11.80
2023-07-08T02:28:27.976Z,11.60
2023-07-08T02:31:06.047Z,12.80
2023-07-08T02:33:39.400Z,12.10
2023-07-08T02:36:12.491Z,8.70
2023-07-08T02:38:45.610Z,10.60
2023-07-08T02:41:19.532Z,9.30
2023-07-08T02:43:52.943Z,10.60
2023-07-08T02:46:26.417Z,16.60
2023-07-08T02:48:59.717Z,11.20
2023-07-08T02:51:33.038Z,17.10
2023-07-08T02:54:06.247Z,12.00
2023-07-08T02:56:39.475Z,10.30
2023-07-08T02:59:12.685Z,11.40
2023-07-08T03:01:48.285Z,12.60
2023-07-08T03:04:23.252Z,13.30
2023-07-08T03:06:56.917Z,13.10
2023-07-08T03:09:30.251Z,8.70
2023-07-08T03:12:03.437Z,10.70
2023-07-08T03:14:38.252Z,10.10
2023-07-08T03:17:11.964Z,13.70
2023-07-08T03:19:46.300Z,16.20
2023-07-08T03:22:19.400Z,13.60
2023-07-08T03:24:52.633Z,16.20
2023-07-08T03:27:27.744Z,12.90
2023-07-08T03:30:01.756Z,18.80
2023-07-08T03:32:36.363Z,10.30
2023-07-08T03:35:12.431Z,11.40
2023-07-08T03:37:45.747Z,12.50
2023-07-08T03:40:19.173Z,12.60
2023-07-08T03:42:52.338Z,16.80
2023-07-08T03:45:25.674Z,12.70
2023-07-08T03:47:59.159Z,13.20
2023-07-08T03:50:32.784Z,14.40
2023-07-08T03:53:06.041Z,19.10
2023-07-08T03:55:39.383Z,12.00
2023-07-08T03:58:12.929Z,10.40
2023-07-08T04:00:46.284Z,13.20
2023-07-08T04:03:20.611Z,13.70
2023-07-08T04:05:54.024Z,14.40
2023-07-08T04:08:27.600Z,10.50
2023-07-08T04:11:01.044Z,13.90
2023-07-08T04:13:34.729Z,10.90
2023-07-08T04:16:12.604Z,9.90
2023-07-08T04:18:45.765Z,12.10
2023-07-08T04:21:23.367Z,10.90
2023-07-08T04:23:56.891Z,15.00
2023-07-08T04:26:30.292Z,8.00
2023-07-08T04:29:03.589Z,9.60
2023-07-08T04:31:37.178Z,12.00
2023-07-08T04:34:10.987Z,14.30
2023-07-08T04:36:44.332Z,11.00
2023-07-08T04:39:17.668Z,12.30
2023-07-08T04:41:52.218Z,13.20
2023-07-08T04:44:25.615Z,11.30
2023-07-08T04:47:00.963Z,6.80
2023-07-08T04:49:35.151Z,11.00
2023-07-08T04:52:09.578Z,12.10
2023-07-08T04:54:42.874Z,9.40
2023-07-08T04:57:17.921Z,8.00
2023-07-08T04:59:51.525Z,7.60
2023-07-08T05:02:24.724Z,9.60
2023-07-08T05:04:57.855Z,7.30
2023-07-08T05:07:31.097Z,9.40
2023-07-08T05:10:05.107Z,12.10
2023-07-08T05:12:38.324Z,11.10
2023-07-08T05:15:13.354Z,8.10
2023-07-08T05:17:47.038Z,7.10
2023-07-08T05:20:20.655Z,6.40
2023-07-08T05:22:54.057Z,8.30
2023-07-08T05:25:28.890Z,8.60
2023-07-08T05:28:02.410Z,7.80
2023-07-08T05:30:35.870Z,7.10
2023-07-08T05:33:09.418Z,8.90
2023-07-08T05:35:42.580Z,7.00
2023-07-08T05:38:15.720Z,9.40
2023-07-08T05:40:52.585Z,9.50
2023-07-08T05:43:25.932Z,6.80
2023-07-08T05:46:11.281Z,9.40
2023-07-08T05:48:46.137Z,10.10
2023-07-08T05:51:19.425Z,7.70
2023-07-08T05:53:52.640Z,10.60
2023-07-08T05:56:25.820Z,7.50
2023-07-08T05:58:59.103Z,9.20
2023-07-08T06:01:32.466Z,6.80
2023-07-08T06:04:06.062Z,8.00
2023-07-08T06:06:39.347Z,10.60
2023-07-08T06:09:12.488Z,11.30
2023-07-08T06:11:45.805Z,6.90
2023-07-08T06:14:19.063Z,7.60
2023-07-08T06:16:52.546Z,9.90
2023-07-08T06:19:26.087Z,7.40
2023-07-08T06:22:13.565Z,8.00
2023-07-08T06:24:52.839Z,6.30
2023-07-08T06:27:26.350Z,6.70
2023-07-08T06:30:00.701Z,10.20
2023-07-08T06:32:33.786Z,8.20
2023-07-08T06:35:07.888Z,9.20
2023-07-08T06:37:41.083Z,6.50
2023-07-08T06:40:16.232Z,9.60
2023-07-08T06:42:49.646Z,7.80
2023-07-08T06:45:33.930Z,7.50
2023-07-08T06:48:07.670Z,9.30
2023-07-08T06:50:44.108Z,12.80
2023-07-08T06:53:17.494Z,8.20
2023-07-08T06:55:51.902Z,12.60
2023-07-08T06:58:25.042Z,9.30
2023-07-08T07:00:58.729Z,11.20
2023-07-08T07:03:32.178Z,6.70
2023-07-08T07:06:05.546Z,15.90
2023-07-08T07:08:38.737Z,8.10
2023-07-08T07:11:12.009Z,7.60
2023-07-08T07:13:45.379Z,13.20
2023-07-08T07:16:18.597Z,7.60
2023-07-08T07:18:53.213Z,5.50
2023-07-08T07:21:26.563Z,6.30
2023-07-08T07:23:59.732Z,6.30
2023-07-08T07:26:33.812Z,4.60
2023-07-08T07:29:06.942Z,7.00
2023-07-08T07:31:41.256Z,7.20
2023-07-08T07:34:15.629Z,8.20
2023-07-08T07:36:48.977Z,5.80
2023-07-08T07:39:22.071Z,10.30
2023-07-08T07:41:55.227Z,5.90
2023-07-08T07:44:28.486Z,6.40
2023-07-08T07:47:01.820Z,6.20
2023-07-08T07:49:35.103Z,9.20
2023-07-08T07:52:12.128Z,5.80
2023-07-08T07:54:45.864Z,5.40
2023-07-08T07:57:19.204Z,7.40
2023-07-08T07:59:52.967Z,10.10
2023-07-08T08:02:26.423Z,5.20
2023-07-08T08:04:59.681Z,5.50
2023-07-08T08:07:32.869Z,8.70
2023-07-08T08:10:06.575Z,4.40
2023-07-08T08:12:52.565Z,4.40
2023-07-08T08:15:27.691Z,4.40
2023-07-08T08:18:00.984Z,6.00
2023-07-08T08:20:34.788Z,6.90
2023-07-08T08:23:09.041Z,2.50
2023-07-08T08:25:42.317Z,6.00
2023-07-08T08:28:15.577Z,2.20
2023-07-08T08:30:52.496Z,4.80
2023-07-08T08:33:25.954Z,4.70
2023-07-08T08:35:59.455Z,2.70
2023-07-08T08:38:32.933Z,5.70
2023-07-08T08:41:16.774Z,4.30
2023-07-08T08:43:52.791Z,2.40
2023-07-08T08:46:34.643Z,7.00
2023-07-08T08:49:23.889Z,4.80
2023-07-08T08:52:02.872Z,2.80
2023-07-08T08:54:36.249Z,5.70
2023-07-08T08:57:29.765Z,3.40
2023-07-08T09:00:04.590Z,3.70
2023-07-08T09:02:44.008Z,4.90
2023-07-08T09:05:18.028Z,3.00
2023-07-08T09:08:15.420Z,2.70
2023-07-08T09:10:57.735Z,5.90
2023-07-08T09:13:34.317Z,2.20
2023-07-08T09:16:18.972Z,3.20
2023-07-08T09:19:06.914Z,3.30
2023-07-08T09:21:52.097Z,4.30
2023-07-08T09:24:33.717Z,5.30
2023-07-08T09:27:07.653Z,6.60
2023-07-08T09:29:41.819Z,2.70
2023-07-08T09:32:23.666Z,5.50
2023-07-08T09:35:04.328Z,3.40
2023-07-08T09:37:40.556Z,5.10
2023-07-08T09:40:22.727Z,5.10
2023-07-08T09:43:01.499Z,3.50
2023-07-08T09:45:45.183Z,7.50
2023-07-08T09:48:27.260Z,4.20
2023-07-08T09:51:02.443Z,4.50
2023-07-08T09:53:37.519Z,4.30
2023-07-08T09:56:12.773Z,2.60
2023-07-08T09:58:50.549Z,4.60
2023-07-08T10:01:30.365Z,2.40
2023-07-08T10:04:06.113Z,4.60
2023-07-08T10:06:40.009Z,3.70
2023-07-08T10:09:20.159Z,4.60
2023-07-08T10:11:58.783Z,2.40
2023-07-08T10:14:37.573Z,5.90
2023-07-08T10:17:16.032Z,5.30
2023-07-08T10:19:49.324Z,3.50
2023-07-08T10:22:43.733Z,4.30
2023-07-08T10:25:31.502Z,5.40
2023-07-08T10:28:22.754Z,11.80
2023-07-08T10:31:13.332Z,4.20
2023-07-08T10:34:06.242Z,3.60
2023-07-08T10:36:52.639Z,2.80
2023-07-08T10:40:04.105Z,2.40
2023-07-08T10:43:02.691Z,5.10
2023-07-08T10:45:41.801Z,2.80
2023-07-08T10:48:43.344Z,4.70
2023-07-08T10:51:28.983Z,5.30
2023-07-08T10:54:35.837Z,2.10
2023-07-08T10:57:23.021Z,3.10
2023-07-08T11:00:06.027Z,3.20
2023-07-08T11:03:21.538Z,4.40
2023-07-08T11:06:02.782Z,3.50
2023-07-08T11:08:42.130Z,3.10
2023-07-08T11:11:26.844Z,2.40
2023-07-08T11:14:06.341Z,2.10
2023-07-08T11:16:43.886Z,5.30
2023-07-08T11:19:24.160Z,7.80
2023-07-08T11:22:01.890Z,4.50
2023-07-08T11:24:42.091Z,3.90
2023-07-08T11:27:25.561Z,7.50
2023-07-08T11:30:02.303Z,5.10
2023-07-08T11:32:38.233Z,2.80
2023-07-08T11:35:22.421Z,4.20
2023-07-08T11:37:56.350Z,9.00
2023-07-08T11:40:29.712Z,2.20
2023-07-08T11:43:08.782Z,3.20
2023-07-08T11:45:45.790Z,6.00
2023-07-08T11:48:23.890Z,4.20
2023-07-08T11:50:59.431Z,2.70
2023-07-08T11:53:49.683Z,2.40
2023-07-08T11:56:28.812Z,5.50
2023-07-08T11:59:21.168Z,6.80
2023-07-08T12:02:04.522Z,3.50
2023-07-08T12:04:54.917Z,4.20
2023-07-08T12:07:39.321Z,3.30
2023-07-08T12:10:20.803Z,3.10
2023-07-08T12:12:53.973Z,3.20
2023-07-08T12:15:30.811Z,2.80
2023-07-08T12:18:09.298Z,2.90
2023-07-08T12:20:45.891Z,3.00
2023-07-08T12:23:23.377Z,2.00
2023-07-08T12:25:58.905Z,4.50
2023-07-08T12:28:32.193Z,4.50
2023-07-08T12:31:10.876Z,8.10
2023-07-08T12:33:44.321Z,4.60
2023-07-08T12:36:23.623Z,3.50
2023-07-08T12:38:57.805Z,2.30
2023-07-08T12:41:34.474Z,3.30
2023-07-08T12:44:19.861Z,2.00
2023-07-08T12:46:55.442Z,2.60
2023-07-08T12:49:30.708Z,3.60
2023-07-08T12:52:04.130Z,3.50
2023-07-08T12:54:37.441Z,2.80
2023-07-08T12:57:12.844Z,2.90
2023-07-08T12:59:46.355Z,2.10
2023-07-08T13:02:24.483Z,6.70
2023-07-08T13:05:02.227Z,3.40
2023-07-08T13:07:41.640Z,4.30
2023-07-08T13:10:25.371Z,4.10
2023-07-08T13:13:03.153Z,5.40
2023-07-08T13:15:41.744Z,3.50
2023-07-08T13:18:20.571Z,3.40
2023-07-08T13:20:57.418Z,2.50
2023-07-08T13:23:31.403Z,5.60
2023-07-08T13:26:14.273Z,2.80
2023-07-08T13:28:48.091Z,2.40
2023-07-08T13:31:25.826Z,4.20
2023-07-08T13:33:59.888Z,4.40
2023-07-08T13:36:39.902Z,3.40
2023-07-08T13:39:22.082Z,3.00
2023-07-08T13:41:55.839Z,2.90
2023-07-08T13:44:29.402Z,3.80
2023-07-08T13:47:07.156Z,2.40
2023-07-08T13:52:25.221Z,4.50
2023-07-08T13:55:04.080Z,3.90
2023-07-08T13:57:41.947Z,4.50
2023-07-08T14:00:17.504Z,4.40
2023-07-08T14:02:50.889Z,2.60
2023-07-08T14:05:24.348Z,4.30
2023-07-08T14:07:57.668Z,2.90
2023-07-08T14:10:30.998Z,6.90
2023-07-08T14:13:04.558Z,3.10
2023-07-08T14:15:38.072Z,6.80
2023-07-08T14:18:14.128Z,4.20
2023-07-08T14:20:47.408Z,2.50
2023-07-08T14:23:21.945Z,5.80
2023-07-08T14:25:55.328Z,4.40
2023-07-08T14:28:28.575Z,4.30
2023-07-08T14:31:02.814Z,3.20
2023-07-08T14:33:36.703Z,3.00
2023-07-08T14:36:13.299Z,4.00
2023-07-08T14:38:46.642Z,5.00
2023-07-08T14:41:20.196Z,4.00
2023-07-08T14:43:54.100Z,2.80
2023-07-08T14:46:27.678Z,5.50
2023-07-08T14:49:01.104Z,3.70
2023-07-08T14:51:34.387Z,2.50
2023-07-08T14:54:07.885Z,3.10
2023-07-08T14:56:42.008Z,4.00
2023-07-08T14:59:20.376Z,3.90
2023-07-08T15:01:55.935Z,3.60
2023-07-08T15:04:29.556Z,5.30
2023-07-08T15:07:03.938Z,2.50
2023-07-08T15:09:37.223Z,2.30
2023-07-08T15:12:15.228Z,6.30
2023-07-08T15:17:21.026Z,2.50
2023-07-08T15:19:55.279Z,3.20
2023-07-08T15:22:30.369Z,3.10
2023-07-08T15:25:03.887Z,2.30
2023-07-08T15:27:37.505Z,7.40
2023-07-08T15:30:20.765Z,5.00
2023-07-08T15:32:54.662Z,3.10
2023-07-08T15:35:33.829Z,2.30
2023-07-08T15:38:07.343Z,2.20
2023-07-08T15:40:42.723Z,3.30
2023-07-08T15:43:19.074Z,4.20
2023-07-08T15:45:52.303Z,2.10
2023-07-08T15:48:25.738Z,2.60
2023-07-08T15:50:59.517Z,6.60
2023-07-08T15:53:34.003Z,5.80
2023-07-08T15:56:07.693Z,6.30
2023-07-08T15:58:41.807Z,9.80
2023-07-08T16:01:21.745Z,2.20
2023-07-08T16:03:55.392Z,3.60
2023-07-08T16:06:30.118Z,3.80
2023-07-08T16:09:04.926Z,5.10
2023-07-08T16:11:38.338Z,3.90
2023-07-08T16:14:14.034Z,3.20
2023-07-08T16:16:48.558Z,3.80
2023-07-08T16:19:21.867Z,2.60
2023-07-08T16:21:55.179Z,8.00
2023-07-08T16:24:28.716Z,7.20
2023-07-08T16:27:02.069Z,3.60
2023-07-08T16:29:36.724Z,6.30
2023-07-08T16:32:15.436Z,4.00
2023-07-08T16:34:48.939Z,2.90
2023-07-08T16:37:22.432Z,3.70
2023-07-08T16:39:57.102Z,6.70
2023-07-08T16:42:30.531Z,4.30
2023-07-08T16:45:04.924Z,9.60
2023-07-08T16:47:38.526Z,2.50
2023-07-08T16:50:13.569Z,2.90
2023-07-08T16:52:47.191Z,4.20
2023-07-08T16:55:24.548Z,4.20
2023-07-08T16:57:58.084Z,3.30
2023-07-08T17:00:31.943Z,6.70
2023-07-08T17:03:06.394Z,2.90
2023-07-08T17:05:41.298Z,3.40
2023-07-08T17:08:16.887Z,4.50
2023-07-08T17:10:50.186Z,3.00
2023-07-08T17:13:23.564Z,4.30
2023-07-08T17:15:57.238Z,4.00
2023-07-08T17:18:30.781Z,7.00
2023-07-08T17:21:05.597Z,2.20
2023-07-08T17:23:39.198Z,4.30
2023-07-08T17:26:13.042Z,5.80
2023-07-08T17:28:49.859Z,4.70
2023-07-08T17:31:34.527Z,3.40
2023-07-08T17:34:24.492Z,5.50
2023-07-08T17:36:58.270Z,10.00
2023-07-08T17:39:31.666Z,2.60
2023-07-08T17:42:05.356Z,8.30
2023-07-08T17:44:38.822Z,2.60
2023-07-08T17:47:16.971Z,3.50
2023-07-08T17:49:50.456Z,4.70
2023-07-08T17:52:24.020Z,4.40
2023-07-08T17:54:57.469Z,7.00
2023-07-08T17:57:30.794Z,4.10
2023-07-08T18:00:04.453Z,4.90
2023-07-08T18:02:46.747Z,9.80
2023-07-08T18:05:23.482Z,8.40
2023-07-08T18:07:57.741Z,6.30
2023-07-08T18:10:34.029Z,4.90
2023-07-08T18:13:23.490Z,6.00
2023-07-08T18:15:57.615Z,9.00
2023-07-08T18:18:31.097Z,4.20
2023-07-08T18:21:04.617Z,5.40
2023-07-08T18:23:38.219Z,6.50
2023-07-08T18:26:18.973Z,5.90
2023-07-08T18:28:52.917Z,5.60
2023-07-08T18:31:34.773Z,7.70
2023-07-08T18:34:09.735Z,5.60
2023-07-08T18:36:43.144Z,6.90
2023-07-08T18:39:19.399Z,7.70
2023-07-08T18:41:52.970Z,9.10
2023-07-08T18:44:33.324Z,8.20
2023-07-08T18:47:07.463Z,6.30
2023-07-08T18:49:40.943Z,6.80
2023-07-08T18:52:17.371Z,7.30
2023-07-08T18:54:51.067Z,9.50
2023-07-08T18:57:25.082Z,6.90
2023-07-08T18:59:58.864Z,7.40
2023-07-08T19:02:39.218Z,6.60
2023-07-08T19:05:15.571Z,10.80
2023-07-08T19:07:49.695Z,6.50
2023-07-08T19:10:30.215Z,15.60
2023-07-08T19:13:03.875Z,9.40
2023-07-08T19:15:37.481Z,12.70
2023-07-08T19:18:12.574Z,10.30
2023-07-08T19:20:49.343Z,9.00
2023-07-08T19:23:27.279Z,9.50
2023-07-08T19:26:00.862Z,7.20
2023-07-08T19:28:35.007Z,7.40
2023-07-08T19:31:18.614Z,7.80
2023-07-08T19:33:53.834Z,8.20
2023-07-08T19:36:27.764Z,8.50
2023-07-08T19:39:01.626Z,5.10
2023-07-08T19:41:39.411Z,6.20
2023-07-08T19:44:19.731Z,8.00
2023-07-08T19:46:53.358Z,8.60
2023-07-08T19:49:26.829Z,8.00
2023-07-08T19:52:00.966Z,5.90
2023-07-08T19:54:34.391Z,7.70
2023-07-08T19:57:14.873Z,11.20
2023-07-08T19:59:48.800Z,8.60
2023-07-08T20:02:23.670Z,9.50
2023-07-08T20:04:57.316Z,11.30
2023-07-08T20:07:31.165Z,14.90
2023-07-08T20:10:04.919Z,10.20
2023-07-08T20:12:38.503Z,12.30
2023-07-08T20:15:14.561Z,12.10
2023-07-08T20:17:48.138Z,10.30
2023-07-08T20:20:28.172Z,9.60
2023-07-08T20:23:02.499Z,8.50
2023-07-08T20:25:35.934Z,13.30
2023-07-08T20:28:12.394Z,10.40
2023-07-08T20:30:45.979Z,8.20
2023-07-08T20:33:19.708Z,10.80
2023-07-08T20:35:53.222Z,13.00
2023-07-08T20:38:26.786Z,13.10
2023-07-08T20:41:00.367Z,10.30
2023-07-08T20:43:33.941Z,11.50
2023-07-08T20:46:13.576Z,11.40
2023-07-08T20:48:47.149Z,9.30
2023-07-08T20:51:20.737Z,10.90
2023-07-08T20:53:54.743Z,12.50
2023-07-08T20:56:32.611Z,21.00
2023-07-08T20:59:06.081Z,17.70
2023-07-08T21:01:39.483Z,16.50
2023-07-08T21:04:16.275Z,14.50
2023-07-08T21:06:49.663Z,17.90
2023-07-08T21:09:24.902Z,18.50
2023-07-08T21:11:58.215Z,17.40
2023-07-08T21:14:31.544Z,14.80
2023-07-08T21:17:05.958Z,13.30
2023-07-08T21:19:40.789Z,19.00
2023-07-08T21:22:16.056Z,16.20
2023-07-08T21:24:49.528Z,17.10
2023-07-08T21:27:32.219Z,19.40
2023-07-08T21:30:06.171Z,18.30
2023-07-08T21:32:39.626Z,13.10
2023-07-08T21:35:14.127Z,15.20
2023-07-08T21:37:53.322Z,23.20
2023-07-08T21:40:37.522Z,21.40
2023-07-08T21:43:16.326Z,22.60
2023-07-08T21:45:50.056Z,23.10
2023-07-08T21:48:24.282Z,21.30
2023-07-08T21:51:00.405Z,19.90
2023-07-08T21:53:37.358Z,16.30
2023-07-08T21:56:12.289Z,21.30
2023-07-08T21:58:45.800Z,19.40
2023-07-08T22:01:23.828Z,20.70
2023-07-08T22:03:59.221Z,20.80
2023-07-08T22:06:32.733Z,17.40
2023-07-08T22:09:06.537Z,16.10
2023-07-08T22:11:41.718Z,19.60
2023-07-08T22:14:16.210Z,20.90
2023-07-08T22:17:01.371Z,20.10
2023-07-08T22:19:39.076Z,22.80
2023-07-08T22:22:15.270Z,24.70
2023-07-08T22:24:48.831Z,23.50
2023-07-08T22:27:22.316Z,26.10
2023-07-08T22:29:55.686Z,20.30
2023-07-08T22:32:29.274Z,20.40
2023-07-08T22:35:02.771Z,18.10
2023-07-08T22:37:36.098Z,14.70
2023-07-08T22:40:11.718Z,16.00
2023-07-08T22:42:46.727Z,12.70
2023-07-08T22:45:20.855Z,17.90
2023-07-08T22:47:54.941Z,21.90
2023-07-08T22:50:38.105Z,10.30
2023-07-08T22:53:13.835Z,11.90
2023-07-08T22:55:48.348Z,14.40
2023-07-08T22:58:26.202Z,14.40
2023-07-08T23:01:00.067Z,19.00
2023-07-08T23:03:33.593Z,15.30
2023-07-08T23:06:07.601Z,11.60
2023-07-08T23:08:42.135Z,14.70
2023-07-08T23:11:16.996Z,12.80
2023-07-08T23:13:51.331Z,12.00
2023-07-08T23:16:33.327Z,12.00
2023-07-08T23:19:08.120Z,9.00
2023-07-08T23:21:42.132Z,14.60
2023-07-08T23:24:15.633Z,11.40
2023-07-08T23:26:49.191Z,18.00
2023-07-08T23:29:25.233Z,10.60
2023-07-08T23:31:59.917Z,13.40
2023-07-08T23:34:33.559Z,11.80
2023-07-08T23:37:07.742Z,14.30
2023-07-08T23:39:41.155Z,14.30
2023-07-08T23:42:18.224Z,12.20
2023-07-08T23:44:51.337Z,12.50
2023-07-08T23:47:27.816Z,14.50
2023-07-08T23:50:01.816Z,15.00
2023-07-08T23:52:35.003Z,11.10
2023-07-08T23:55:09.841Z,12.40
2023-07-08T23:57:43.737Z,14.90
